Puerto Aisen, Chile
Current Conditions -  °F | °C
As of 9:00 AM on Tuesday 21 Oct 2014 (Local Time) from SCBA Reporting Station
Light Rain Light Rain  
Wind Chill: 45°   Ceiling: 5000
Heat Index: 45°   Visibility: 6mi
Dew Point: 41°   Wind: 2mph
Humidity: 87%   Direction: 290°WNW
Pressure: 29.62"   Gusts: NA
Location:  45.4°S, 72.7°W
Report Text: SCBA 211300Z 29002KT 9999 -RA SCT020 OVC050 07/05 Q1003
Loading
Personal Weather Stations






























Interactive Weather Map
Tropical Storm Tracking
New forecast layout! Learn more

10-Day Weather Forecast

Advertisements
Track Severe Weather on mobile